Watertown, SD

6:39 PM CDT on September 01, 2014 (GMT -0500)
Watertown Municipal | Change Station
CLOSE
Current Station
Airport
Location: Watertown,
Elevation: 1749 ft
Nearby Weather Stations

Elev 1749 ft 44.90 °N, 97.15 °W | Updated 20 minutes ago

Overcast
Overcast
64 °F
Feels Like 64 °F
N
17
Wind Variable Wind from SW

Today
High -- | Low -- °F
--% Chance of Precip.
Yesterday
High -- | Low -- °F
Precip. -- in
6:50 AM 8:05 PM
Waxing Crescent, 45% visible
Pressure 29.82 in
Visibility 10.0 miles
Clouds Mostly Cloudy 9000 ft
Overcast 12000 ft
Dew Point 53 °F
Humidity 67%
Rainfall 0.00 in
Snow Depth Not available.
UV 0 out of 12
Pollen 8.60 out of 12
Air Quality Not available.
Flu Activity Not available.
SPECI KATY 012319Z AUTO 23015KT 10SM BKN090 OVC120 18/12 A2982 RMK AO2 PK WND 22031/2304 LTG DSNT NE AND SW RAB2259E13 TSB2258E13 P0000 T01780117

More Conditions Fewer Conditions

Pressure 29.82 in
Visibility 10.0 miles
Clouds Mostly Cloudy 9000 ft
Overcast 12000 ft
Dew Point 53 °F
Humidity 67%
Rainfall 0.00 in
Snow Depth Not available.
UV 0 out of 12
Pollen 8.60 out of 12
Air Quality Not available.
Flu Activity Not available.
SPECI KATY 012319Z AUTO 23015KT 10SM BKN090 OVC120 18/12 A2982 RMK AO2 PK WND 22031/2304 LTG DSNT NE AND SW RAB2259E13 TSB2258E13 P0000 T01780117

More Conditions Fewer Conditions

10-Day Weather Forecast

Almanac

Astronomy

Sep. 01, 2014 Rise Set
Actual Time 6:50 AM CDT 8:05 PM CDT
Civil Twilight 6:20 AM CDT 8:35 PM CDT
Nautical Twilight 5:44 AM CDT 9:11 PM CDT
Astronomical Twilight 5:05 AM CDT 9:50 PM CDT
Moon 1:55 PM CDT 11:49 PM CDT
Length of Visible Light 14h 15m
Length of Day
13h 14m
Tomorrow will be 3m 0s shorter.
Waxing Crescent, 45% of the Moon is Illuminated
Today
Waxing Crescent
Sep 2
First Quarter
Sep 8
Full
Sep 15
Last Quarter
Sep 24
New

Today's Extremes

State Highs State Lows

Community

WunderPhotos

Upload Photos

1,749,440 photos uploaded!

Nearby

Snow Depth

Station Depth Elevation
North Rapid Creek 0 in 6130 ft
Blind Park 0 in 6890 ft

Earthquake Activity

City Distance Mag. Time & Date
No recent earthquake activity has been reported nearby.
Minimum magnitude displayed is 2.5.

Coastal Water Temperatures

Place Temperature
No Stations Reporting

Nearby Weather Stations